createdAt,value
2023-03-02T00:01:38.938Z,5.07
2023-03-02T00:04:09.566Z,5.03
2023-03-02T00:06:37.288Z,4.92
2023-03-02T00:09:05.236Z,5.07
2023-03-02T00:11:42.754Z,5.23
2023-03-02T00:14:09.875Z,5.12
2023-03-02T00:16:37.036Z,5.05
2023-03-02T00:19:04.214Z,5.02
2023-03-02T00:21:31.420Z,4.79
2023-03-02T00:23:58.576Z,4.94
2023-03-02T00:26:26.078Z,4.85
2023-03-02T00:28:53.116Z,4.90
2023-03-02T00:31:20.289Z,4.83
2023-03-02T00:33:47.456Z,5.04
2023-03-02T00:36:16.868Z,4.97
2023-03-02T00:38:44.637Z,4.82
2023-03-02T00:41:15.654Z,4.81
2023-03-02T00:43:43.178Z,5.04
2023-03-02T00:46:15.659Z,4.91
2023-03-02T00:48:46.436Z,4.81
2023-03-02T00:51:14.101Z,4.83
2023-03-02T00:53:41.969Z,4.96
2023-03-02T00:56:13.531Z,4.86
2023-03-02T00:58:40.797Z,4.87
2023-03-02T01:01:10.566Z,5.01
2023-03-02T01:03:37.939Z,5.14
2023-03-02T01:06:06.244Z,5.07
2023-03-02T01:08:33.328Z,4.91
2023-03-02T01:11:00.546Z,4.89
2023-03-02T01:13:28.572Z,5.08
2023-03-02T01:16:05.593Z,4.94
2023-03-02T01:18:34.486Z,4.99
2023-03-02T01:21:07.089Z,4.87
2023-03-02T01:23:34.614Z,5.06
2023-03-02T01:26:02.493Z,4.97
2023-03-02T01:28:29.652Z,5.07
2023-03-02T01:31:02.657Z,5.17
2023-03-02T01:33:31.460Z,5.17
2023-03-02T01:35:58.738Z,5.08
2023-03-02T01:38:26.055Z,5.08
2023-03-02T01:40:53.243Z,4.99
2023-03-02T01:43:20.398Z,5.11
2023-03-02T01:45:47.758Z,5.13
2023-03-02T01:48:18.517Z,5.17
2023-03-02T01:50:45.778Z,5.07
2023-03-02T01:53:20.596Z,4.99
2023-03-02T01:55:50.359Z,4.94
2023-03-02T01:58:19.591Z,5.07
2023-03-02T02:00:47.350Z,5.04
2023-03-02T02:03:23.433Z,5.15
2023-03-02T02:06:13.179Z,5.28
2023-03-02T02:08:40.323Z,4.94
2023-03-02T02:11:07.517Z,5.09
2023-03-02T02:13:34.983Z,5.12
2023-03-02T02:16:03.469Z,5.24
2023-03-02T02:18:31.347Z,5.00
2023-03-02T02:20:58.889Z,4.94
2023-03-02T02:23:39.472Z,5.06
2023-03-02T02:26:16.626Z,4.95
2023-03-02T02:29:09.667Z,5.02
2023-03-02T02:31:52.964Z,5.07
2023-03-02T02:34:32.141Z,5.24
2023-03-02T02:37:06.384Z,5.03
2023-03-02T02:39:38.290Z,5.02
2023-03-02T02:42:16.133Z,5.06
2023-03-02T02:44:47.849Z,5.17
2023-03-02T02:47:18.855Z,5.10
2023-03-02T02:49:51.641Z,4.94
2023-03-02T02:52:22.022Z,5.06
2023-03-02T02:54:52.870Z,5.09
2023-03-02T02:57:22.169Z,5.10
2023-03-02T03:00:00.223Z,5.06
2023-03-02T03:02:30.053Z,5.09
2023-03-02T03:04:57.241Z,5.22
2023-03-02T03:07:25.485Z,4.97
2023-03-02T03:10:24.866Z,5.05
2023-03-02T03:12:52.609Z,5.09
2023-03-02T03:15:20.858Z,5.09
2023-03-02T03:17:58.803Z,5.17
2023-03-02T03:20:29.048Z,5.03
2023-03-02T03:22:59.049Z,5.05
2023-03-02T03:25:27.089Z,4.96
2023-03-02T03:27:54.225Z,4.79
2023-03-02T03:30:21.430Z,4.91
2023-03-02T03:32:48.512Z,4.95
2023-03-02T03:35:15.738Z,4.96
2023-03-02T03:37:45.677Z,4.99
2023-03-02T03:40:13.096Z,4.96
2023-03-02T03:42:40.283Z,4.99
2023-03-02T03:45:09.226Z,5.11
2023-03-02T03:47:39.141Z,5.09
2023-03-02T03:50:06.447Z,6.49
2023-03-02T03:52:33.579Z,9.11
2023-03-02T03:55:01.822Z,8.39
2023-03-02T03:57:29.592Z,6.93
2023-03-02T03:59:56.766Z,6.41
2023-03-02T04:02:23.911Z,6.01
2023-03-02T04:04:51.838Z,5.67
2023-03-02T04:07:20.953Z,5.64
2023-03-02T04:09:51.278Z,5.46
2023-03-02T04:12:18.428Z,5.39
2023-03-02T04:14:45.823Z,5.12
2023-03-02T04:17:12.997Z,5.01
2023-03-02T04:19:40.053Z,5.02
2023-03-02T04:22:10.153Z,4.99
2023-03-02T04:24:37.228Z,4.87
2023-03-02T04:27:04.471Z,6.62
2023-03-02T04:29:31.577Z,5.81
2023-03-02T04:31:58.820Z,5.60
2023-03-02T04:34:26.127Z,5.44
2023-03-02T04:36:54.518Z,5.34
2023-03-02T04:39:22.221Z,5.23
2023-03-02T04:41:50.028Z,5.14
2023-03-02T04:44:18.032Z,5.07
2023-03-02T04:47:10.058Z,5.15
2023-03-02T04:49:37.912Z,5.23
2023-03-02T04:52:10.415Z,5.26
2023-03-02T04:54:38.128Z,5.29
2023-03-02T04:57:16.044Z,5.22
2023-03-02T04:59:43.898Z,5.15
2023-03-02T05:02:12.027Z,5.20
2023-03-02T05:04:39.607Z,5.33
2023-03-02T05:07:14.631Z,5.30
2023-03-02T05:09:45.605Z,5.18
2023-03-02T05:12:15.544Z,5.23
2023-03-02T05:14:46.314Z,5.19
2023-03-02T05:17:13.649Z,5.25
2023-03-02T05:19:40.709Z,5.18
2023-03-02T05:22:07.856Z,5.15
2023-03-02T05:24:34.929Z,4.81
2023-03-02T05:27:02.030Z,4.85
2023-03-02T05:29:40.149Z,4.93
2023-03-02T05:32:10.420Z,4.87
2023-03-02T05:34:37.796Z,4.99
2023-03-02T05:37:04.938Z,4.87
2023-03-02T05:39:32.055Z,4.98
2023-03-02T05:42:04.338Z,5.11
2023-03-02T05:44:31.982Z,4.87
2023-03-02T05:47:08.046Z,4.92
2023-03-02T05:49:40.331Z,5.09
2023-03-02T05:52:12.982Z,5.08
2023-03-02T05:54:43.015Z,4.95
2023-03-02T05:57:15.273Z,4.96
2023-03-02T05:59:48.000Z,4.68
2023-03-02T06:02:18.637Z,4.95
2023-03-02T06:04:49.170Z,4.69
2023-03-02T06:07:16.796Z,4.71
2023-03-02T06:09:44.356Z,4.81
2023-03-02T06:12:12.115Z,5.00
2023-03-02T06:14:39.800Z,4.82
2023-03-02T06:17:07.614Z,4.76
2023-03-02T06:19:35.624Z,4.79
2023-03-02T06:22:04.685Z,4.87
2023-03-02T06:24:51.194Z,4.78
2023-03-02T06:27:21.146Z,4.72
2023-03-02T06:29:51.220Z,4.60
2023-03-02T06:32:20.289Z,4.83
2023-03-02T06:34:48.146Z,4.69
2023-03-02T06:37:16.480Z,4.53
2023-03-02T06:39:44.006Z,4.61
2023-03-02T06:42:11.192Z,4.57
2023-03-02T06:44:38.333Z,4.54
2023-03-02T06:47:05.383Z,4.61
2023-03-02T06:49:32.480Z,4.62
2023-03-02T06:51:59.606Z,4.73
2023-03-02T06:54:26.827Z,4.38
2023-03-02T06:56:53.960Z,4.24
2023-03-02T06:59:21.053Z,4.36
2023-03-02T07:01:48.388Z,4.45
2023-03-02T07:04:17.884Z,4.19
2023-03-02T07:06:48.193Z,4.23
2023-03-02T07:09:19.460Z,4.08
2023-03-02T07:11:46.802Z,4.21
2023-03-02T07:14:14.231Z,4.20
2023-03-02T07:16:41.517Z,4.03
2023-03-02T07:19:13.178Z,4.25
2023-03-02T07:21:40.928Z,4.29
2023-03-02T07:24:08.504Z,4.27
2023-03-02T07:26:35.599Z,4.31
2023-03-02T07:29:04.795Z,4.09
2023-03-02T07:31:32.374Z,4.25
2023-03-02T07:34:04.291Z,4.10
2023-03-02T07:36:31.716Z,3.95
2023-03-02T07:39:09.715Z,3.87
2023-03-02T07:41:44.961Z,4.01
2023-03-02T07:44:17.441Z,4.15
2023-03-02T07:46:44.779Z,4.09
2023-03-02T07:49:12.120Z,4.04
2023-03-02T07:51:39.774Z,4.22
2023-03-02T07:54:12.471Z,4.02
2023-03-02T07:56:40.864Z,4.10
2023-03-02T07:59:08.168Z,4.01
2023-03-02T08:01:35.676Z,4.04
2023-03-02T08:04:03.255Z,3.82
2023-03-02T08:06:30.940Z,3.73
2023-03-02T08:08:58.868Z,3.81
2023-03-02T08:11:26.251Z,3.83
2023-03-02T08:13:53.520Z,3.92
2023-03-02T08:16:20.991Z,4.04
2023-03-02T08:18:48.451Z,3.92
2023-03-02T08:21:20.729Z,3.84
2023-03-02T08:23:48.274Z,3.82
2023-03-02T08:26:19.157Z,3.93
2023-03-02T08:28:47.308Z,3.93
2023-03-02T08:31:14.930Z,4.11
2023-03-02T08:33:42.930Z,3.85
2023-03-02T08:36:16.955Z,3.89
2023-03-02T08:38:44.979Z,3.75
2023-03-02T08:41:15.346Z,3.88
2023-03-02T08:43:43.887Z,4.04
2023-03-02T08:46:14.098Z,4.07
2023-03-02T08:48:42.172Z,4.05
2023-03-02T08:51:13.443Z,4.21
2023-03-02T08:53:43.135Z,4.23
2023-03-02T08:56:20.704Z,4.19
2023-03-02T08:58:49.398Z,4.19
2023-03-02T09:01:29.699Z,4.31
2023-03-02T09:03:58.836Z,4.25
2023-03-02T09:06:29.691Z,4.14
2023-03-02T09:08:58.881Z,4.12
2023-03-02T09:11:27.553Z,4.25
2023-03-02T09:13:55.164Z,4.26
2023-03-02T09:16:23.084Z,4.10
2023-03-02T09:18:50.376Z,4.22
2023-03-02T09:21:18.083Z,4.33
2023-03-02T09:23:45.354Z,4.28
2023-03-02T09:26:12.842Z,4.29
2023-03-02T09:28:40.842Z,4.16
2023-03-02T09:31:09.272Z,4.29
2023-03-02T09:33:36.555Z,4.38
2023-03-02T09:36:08.897Z,4.24
2023-03-02T09:38:37.858Z,4.28
2023-03-02T09:41:12.291Z,4.37
2023-03-02T09:44:02.419Z,4.47
2023-03-02T09:46:44.138Z,4.32
2023-03-02T09:49:27.725Z,4.34
2023-03-02T09:52:07.669Z,4.34
2023-03-02T09:54:35.718Z,4.34
2023-03-02T09:57:04.569Z,4.11
2023-03-02T10:00:09.460Z,4.34
2023-03-02T10:02:50.889Z,4.54
2023-03-02T10:05:22.887Z,4.65
2023-03-02T10:07:50.530Z,4.70
2023-03-02T10:10:46.996Z,4.47
2023-03-02T10:13:26.591Z,4.66
2023-03-02T10:16:18.539Z,4.74
2023-03-02T10:18:58.684Z,5.10
2023-03-02T10:21:39.843Z,5.09
2023-03-02T10:24:48.283Z,6.08
2023-03-02T10:27:26.575Z,5.83
2023-03-02T10:30:03.113Z,5.45
2023-03-02T10:32:41.775Z,5.15
2023-03-02T10:35:18.378Z,5.12
2023-03-02T10:37:45.672Z,4.93
2023-03-02T10:40:39.383Z,5.11
2023-03-02T10:43:15.644Z,5.13
2023-03-02T10:45:43.103Z,5.12
2023-03-02T10:48:13.975Z,5.09
2023-03-02T10:50:43.198Z,5.00
2023-03-02T10:53:17.646Z,4.89
2023-03-02T10:55:46.940Z,4.84
2023-03-02T10:58:32.625Z,4.48
2023-03-02T11:01:06.805Z,4.85
2023-03-02T11:03:34.301Z,4.89
2023-03-02T11:06:31.656Z,5.57
2023-03-02T11:09:01.330Z,5.18
2023-03-02T11:11:29.374Z,4.94
2023-03-02T11:14:08.735Z,5.07
2023-03-02T11:16:36.358Z,4.87
2023-03-02T11:19:35.428Z,4.91
2023-03-02T11:22:31.457Z,4.81
2023-03-02T11:25:03.447Z,4.75
2023-03-02T11:27:35.458Z,4.82
2023-03-02T11:30:16.135Z,5.01
2023-03-02T11:32:47.271Z,4.81
2023-03-02T11:35:29.674Z,4.80
2023-03-02T11:38:04.933Z,4.78
2023-03-02T11:41:08.153Z,4.81
2023-03-02T11:43:35.601Z,4.80
2023-03-02T11:46:13.964Z,4.80
2023-03-02T11:48:53.120Z,4.66
2023-03-02T11:51:28.445Z,4.68
2023-03-02T11:54:00.637Z,4.70
2023-03-02T11:56:31.610Z,4.68
2023-03-02T11:59:04.947Z,4.77
2023-03-02T12:01:36.449Z,4.81
2023-03-02T12:04:30.805Z,4.69
2023-03-02T12:07:02.570Z,4.40
2023-03-02T12:09:36.697Z,4.58
2023-03-02T12:12:19.253Z,4.64
2023-03-02T12:14:46.517Z,4.55
2023-03-02T12:17:25.653Z,4.55
2023-03-02T12:20:15.381Z,4.61
2023-03-02T12:22:43.432Z,4.72
2023-03-02T12:25:20.150Z,4.59
2023-03-02T12:27:50.570Z,4.54
2023-03-02T12:30:18.025Z,4.53
2023-03-02T12:32:58.624Z,4.73
2023-03-02T12:35:26.651Z,4.79
2023-03-02T12:37:58.518Z,4.82
2023-03-02T12:40:53.724Z,4.68
2023-03-02T12:43:32.147Z,4.70
2023-03-02T12:46:32.366Z,4.74
2023-03-02T12:49:21.207Z,4.63
2023-03-02T12:51:51.011Z,4.73
2023-03-02T12:54:22.225Z,4.48
2023-03-02T12:57:04.699Z,4.61
2023-03-02T12:59:33.059Z,4.58
2023-03-02T13:02:22.192Z,4.55
2023-03-02T13:04:59.173Z,4.52
2023-03-02T13:07:38.167Z,4.36
2023-03-02T13:10:25.918Z,4.51
2023-03-02T13:12:53.862Z,4.68
2023-03-02T13:15:21.391Z,4.58
2023-03-02T13:17:57.846Z,4.63
2023-03-02T13:20:29.981Z,4.53
2023-03-02T13:22:57.642Z,4.54
2023-03-02T13:25:28.649Z,4.55
2023-03-02T13:28:01.921Z,4.52
2023-03-02T13:30:32.405Z,4.58
2023-03-02T13:33:03.156Z,4.82
2023-03-02T13:35:35.853Z,4.71
2023-03-02T13:38:06.138Z,4.58
2023-03-02T13:40:42.096Z,4.65
2023-03-02T13:43:31.236Z,4.68
2023-03-02T13:46:01.893Z,4.56
2023-03-02T13:48:30.121Z,4.58
2023-03-02T13:51:01.561Z,4.62
2023-03-02T13:53:31.341Z,4.79
2023-03-02T13:55:59.742Z,4.74
2023-03-02T13:58:28.518Z,4.91
2023-03-02T14:00:56.392Z,4.99
2023-03-02T14:03:27.606Z,5.01
2023-03-02T14:05:57.003Z,4.88
2023-03-02T14:08:25.594Z,4.90
2023-03-02T14:10:58.640Z,4.74
2023-03-02T14:13:56.923Z,4.84
2023-03-02T14:16:31.267Z,4.68
2023-03-02T14:19:07.429Z,4.73
2023-03-02T14:21:37.763Z,4.72
2023-03-02T14:24:07.130Z,4.84
2023-03-02T14:26:42.311Z,4.84
2023-03-02T14:29:27.410Z,4.96
2023-03-02T14:32:00.793Z,4.92
2023-03-02T14:34:28.768Z,4.90
2023-03-02T14:36:59.123Z,4.83
2023-03-02T14:39:43.446Z,4.80
2023-03-02T14:42:16.491Z,4.89
2023-03-02T14:44:46.076Z,4.85
2023-03-02T14:47:14.340Z,4.94
2023-03-02T14:49:42.229Z,4.85
2023-03-02T14:52:38.986Z,4.85
2023-03-02T14:55:12.648Z,4.97
2023-03-02T14:57:40.437Z,4.77
2023-03-02T15:00:22.585Z,4.82
2023-03-02T15:02:51.224Z,5.02
2023-03-02T15:05:29.384Z,5.01
2023-03-02T15:08:02.542Z,5.02
2023-03-02T15:10:50.482Z,4.81
2023-03-02T15:13:32.544Z,4.78
2023-03-02T15:16:02.299Z,4.80
2023-03-02T15:18:29.779Z,4.86
2023-03-02T15:21:10.493Z,4.86
2023-03-02T15:23:38.368Z,4.77
2023-03-02T15:26:05.974Z,4.93
2023-03-02T15:28:33.530Z,4.84
2023-03-02T15:31:10.348Z,4.77
2023-03-02T15:33:37.912Z,5.02
2023-03-02T15:36:06.328Z,5.10
2023-03-02T15:38:38.363Z,5.00
2023-03-02T15:41:07.966Z,5.10
2023-03-02T15:43:35.405Z,5.08
2023-03-02T15:46:03.190Z,5.19
2023-03-02T15:48:33.610Z,4.96
2023-03-02T15:51:03.816Z,4.95
2023-03-02T15:53:36.714Z,5.09
2023-03-02T15:56:10.868Z,5.05
2023-03-02T15:58:41.019Z,5.13
2023-03-02T16:01:09.813Z,5.03
2023-03-02T16:03:38.578Z,5.11
2023-03-02T16:06:06.463Z,5.03
2023-03-02T16:08:33.951Z,4.93
2023-03-02T16:11:04.574Z,4.83
2023-03-02T16:13:32.373Z,4.84
2023-03-02T16:16:05.109Z,4.88
2023-03-02T16:18:32.841Z,4.94
2023-03-02T16:21:01.191Z,4.94
2023-03-02T16:23:29.648Z,4.93
2023-03-02T16:26:07.754Z,4.92
2023-03-02T16:28:35.229Z,4.79
2023-03-02T16:31:07.717Z,5.02
2023-03-02T16:33:36.659Z,4.99
2023-03-02T16:36:04.311Z,4.85
2023-03-02T16:38:31.819Z,4.84
2023-03-02T16:40:59.377Z,4.88
2023-03-02T16:43:27.045Z,5.03
2023-03-02T16:45:54.980Z,4.91
2023-03-02T16:48:23.008Z,5.04
2023-03-02T16:50:57.629Z,4.90
2023-03-02T16:53:27.740Z,5.07
2023-03-02T16:55:55.219Z,5.05
2023-03-02T16:58:23.129Z,4.81
2023-03-02T17:00:51.005Z,5.03
2023-03-02T17:03:19.112Z,5.04
2023-03-02T17:05:48.587Z,5.10
2023-03-02T17:08:17.077Z,5.05
2023-03-02T17:10:50.510Z,4.93
2023-03-02T17:13:30.195Z,4.89
2023-03-02T17:16:02.395Z,5.03
2023-03-02T17:18:30.862Z,4.98
2023-03-02T17:20:59.481Z,4.88
2023-03-02T17:23:27.795Z,5.06
2023-03-02T17:25:56.843Z,4.98
2023-03-02T17:28:24.395Z,4.82
2023-03-02T17:30:51.903Z,4.89
2023-03-02T17:33:25.346Z,4.96
2023-03-02T17:36:11.879Z,4.84
2023-03-02T17:38:40.421Z,5.04
2023-03-02T17:41:12.008Z,5.03
2023-03-02T17:43:41.825Z,5.05
2023-03-02T17:46:24.306Z,4.67
2023-03-02T17:48:57.658Z,4.60
2023-03-02T17:51:26.424Z,4.78
2023-03-02T17:53:54.683Z,4.77
2023-03-02T17:56:32.513Z,4.88
2023-03-02T17:59:12.278Z,4.98
2023-03-02T18:01:40.611Z,4.98
2023-03-02T18:04:08.269Z,5.03
2023-03-02T18:06:36.040Z,5.10
2023-03-02T18:09:03.930Z,5.08
2023-03-02T18:11:37.738Z,5.07
2023-03-02T18:14:05.153Z,5.06
2023-03-02T18:16:32.834Z,4.84
2023-03-02T18:19:00.215Z,4.90
2023-03-02T18:21:30.646Z,4.99
2023-03-02T18:24:06.220Z,4.95
2023-03-02T18:26:36.924Z,5.11
2023-03-02T18:29:05.854Z,5.17
2023-03-02T18:31:33.929Z,5.02
2023-03-02T18:34:08.216Z,5.05
2023-03-02T18:36:37.064Z,4.95
2023-03-02T18:39:09.838Z,4.93
2023-03-02T18:41:40.257Z,4.86
2023-03-02T18:44:22.249Z,5.14
2023-03-02T18:46:57.262Z,5.15
2023-03-02T18:49:25.293Z,5.17
2023-03-02T18:51:52.788Z,5.11
2023-03-02T18:54:21.492Z,5.20
2023-03-02T18:56:57.342Z,5.08
2023-03-02T18:59:24.836Z,5.07
2023-03-02T19:02:23.619Z,4.96
2023-03-02T19:05:03.120Z,5.01
2023-03-02T19:07:35.762Z,5.07
2023-03-02T19:10:13.353Z,5.05
2023-03-02T19:12:41.342Z,5.11
2023-03-02T19:15:25.584Z,5.07
2023-03-02T19:17:56.899Z,5.05
2023-03-02T19:20:29.920Z,5.03
2023-03-02T19:23:14.229Z,5.16
2023-03-02T19:25:51.939Z,4.93
2023-03-02T19:28:19.534Z,4.97
2023-03-02T19:31:14.854Z,4.94
2023-03-02T19:33:42.674Z,4.97
2023-03-02T19:36:11.103Z,5.09
2023-03-02T19:38:38.648Z,5.07
2023-03-02T19:41:15.371Z,5.10
2023-03-02T19:43:44.693Z,5.06
2023-03-02T19:46:15.194Z,5.09
2023-03-02T19:48:48.540Z,5.05
2023-03-02T19:51:40.870Z,5.09
2023-03-02T19:54:13.842Z,5.04
2023-03-02T19:56:54.277Z,4.96
2023-03-02T19:59:26.683Z,4.95
2023-03-02T20:01:54.172Z,4.81
2023-03-02T20:04:22.026Z,4.78
2023-03-02T20:06:49.532Z,4.88
2023-03-02T20:09:23.170Z,4.91
2023-03-02T20:11:50.852Z,4.94
2023-03-02T20:14:32.855Z,4.85
2023-03-02T20:17:19.685Z,4.99
2023-03-02T20:20:03.424Z,4.86
2023-03-02T20:22:37.468Z,4.90
2023-03-02T20:25:13.995Z,4.89
2023-03-02T20:28:03.106Z,4.92
2023-03-02T20:30:47.977Z,4.81
2023-03-02T20:33:16.392Z,4.91
2023-03-02T20:35:45.495Z,4.85
2023-03-02T20:38:35.051Z,4.84
2023-03-02T20:41:16.880Z,4.89
2023-03-02T20:43:50.237Z,5.00
2023-03-02T20:46:30.000Z,4.98
2023-03-02T20:48:58.348Z,4.99
2023-03-02T20:51:31.740Z,4.94
2023-03-02T20:54:15.079Z,4.71
2023-03-02T20:56:49.676Z,4.83
2023-03-02T20:59:22.139Z,4.94
2023-03-02T21:02:19.025Z,4.87
2023-03-02T21:05:04.784Z,4.86
2023-03-02T21:07:35.648Z,4.99
2023-03-02T21:10:08.188Z,4.95
2023-03-02T21:12:38.496Z,4.87
2023-03-02T21:15:10.803Z,5.02
2023-03-02T21:17:38.337Z,5.08
2023-03-02T21:20:06.472Z,5.06
2023-03-02T21:22:56.833Z,5.00
2023-03-02T21:25:31.811Z,4.98
2023-03-02T21:28:00.529Z,4.89
2023-03-02T21:30:30.702Z,4.90
2023-03-02T21:32:58.001Z,5.00
2023-03-02T21:35:25.752Z,4.95
2023-03-02T21:37:58.338Z,5.00
2023-03-02T21:40:31.355Z,4.81
2023-03-02T21:43:01.669Z,4.87
2023-03-02T21:45:33.664Z,4.95
2023-03-02T21:48:01.185Z,4.81
2023-03-02T21:50:33.076Z,4.83
2023-03-02T21:53:06.858Z,4.90
2023-03-02T21:55:34.977Z,4.84
2023-03-02T21:58:02.629Z,4.84
2023-03-02T22:00:38.190Z,4.95
2023-03-02T22:03:06.080Z,4.94
2023-03-02T22:05:39.041Z,4.97
2023-03-02T22:08:15.825Z,4.95
2023-03-02T22:10:48.255Z,4.96
2023-03-02T22:13:39.566Z,4.98
2023-03-02T22:16:29.023Z,4.98
2023-03-02T22:19:31.925Z,4.99
2023-03-02T22:22:18.689Z,4.93
2023-03-02T22:24:56.304Z,4.97
2023-03-02T22:27:32.599Z,5.17
2023-03-02T22:30:02.806Z,5.09
2023-03-02T22:32:38.643Z,4.91
2023-03-02T22:35:20.421Z,4.73
2023-03-02T22:37:48.029Z,4.86
2023-03-02T22:40:33.275Z,4.88
2023-03-02T22:43:25.062Z,4.93
2023-03-02T22:46:11.445Z,4.95
2023-03-02T22:48:38.862Z,4.93
2023-03-02T22:51:27.878Z,4.82
2023-03-02T22:54:00.955Z,4.81
2023-03-02T22:57:28.292Z,4.71
2023-03-02T23:00:55.696Z,4.60
2023-03-02T23:03:58.341Z,4.71
2023-03-02T23:06:38.623Z,4.79
2023-03-02T23:09:06.580Z,4.88
2023-03-02T23:11:40.582Z,4.93
2023-03-02T23:14:45.915Z,4.96
2023-03-02T23:17:42.151Z,4.85
2023-03-02T23:20:19.473Z,4.86
2023-03-02T23:22:52.734Z,4.88
2023-03-02T23:25:19.992Z,4.93
2023-03-02T23:27:47.287Z,4.86
2023-03-02T23:30:14.647Z,4.88
2023-03-02T23:32:41.878Z,4.93
2023-03-02T23:35:19.620Z,4.96
2023-03-02T23:37:46.936Z,4.92
2023-03-02T23:40:21.319Z,4.88
2023-03-02T23:42:49.467Z,4.95
2023-03-02T23:45:17.550Z,4.96
2023-03-02T23:47:47.743Z,4.96
2023-03-02T23:50:24.254Z,4.87
2023-03-02T23:52:57.311Z,4.85
2023-03-02T23:55:27.235Z,4.84
2023-03-02T23:57:56.370Z,4.89
